createdAt,value
2022-08-04T00:00:20.092Z,121.03
2022-08-04T00:03:19.265Z,123.05
2022-08-04T00:06:12.032Z,124.20
2022-08-04T00:08:53.127Z,142.20
2022-08-04T00:11:26.106Z,141.88
2022-08-04T00:14:10.846Z,121.65
2022-08-04T00:16:40.955Z,142.25
2022-08-04T00:19:17.973Z,157.60
2022-08-04T00:21:59.821Z,122.88
2022-08-04T00:24:33.831Z,149.95
2022-08-04T00:27:00.634Z,126.85
2022-08-04T00:29:27.746Z,138.57
2022-08-04T00:31:57.929Z,124.07
2022-08-04T00:34:29.581Z,154.18
2022-08-04T00:36:57.639Z,147.30
2022-08-04T00:39:25.697Z,149.27
2022-08-04T00:42:18.738Z,158.93
2022-08-04T00:45:26.692Z,134.90
2022-08-04T00:48:18.102Z,142.23
2022-08-04T00:51:11.724Z,151.25
2022-08-04T00:53:54.020Z,155.43
2022-08-04T00:57:04.104Z,145.95
2022-08-04T00:59:36.398Z,143.43
2022-08-04T01:02:21.702Z,141.05
2022-08-04T01:05:25.345Z,141.77
2022-08-04T01:08:34.768Z,140.07
2022-08-04T01:11:16.145Z,128.98
2022-08-04T01:13:58.156Z,136.95
2022-08-04T01:16:31.445Z,137.63
2022-08-04T01:19:14.380Z,122.18
2022-08-04T01:22:15.153Z,138.43
2022-08-04T01:24:57.258Z,121.85
2022-08-04T01:28:03.497Z,129.13
2022-08-04T01:30:36.101Z,122.75
2022-08-04T01:33:05.076Z,138.25
2022-08-04T01:35:47.949Z,127.70
2022-08-04T01:38:18.278Z,137.68
2022-08-04T01:40:53.003Z,145.07
2022-08-04T01:43:21.179Z,129.02
2022-08-04T01:45:58.443Z,126.03
2022-08-04T01:48:46.281Z,116.82
2022-08-04T01:51:13.359Z,122.57
2022-08-04T01:53:42.475Z,130.73
2022-08-04T01:56:12.185Z,132.10
2022-08-04T01:58:40.353Z,143.23
2022-08-04T02:01:10.014Z,143.35
2022-08-04T02:04:18.813Z,126.25
2022-08-04T02:07:02.496Z,137.13
2022-08-04T02:09:54.307Z,144.40
2022-08-04T02:12:31.905Z,148.85
2022-08-04T02:19:25.112Z,137.63
2022-08-04T02:21:58.183Z,147.25
2022-08-04T02:24:28.994Z,149.87
2022-08-04T02:26:57.796Z,163.63
2022-08-04T02:29:49.974Z,147.30
2022-08-04T02:32:28.945Z,146.23
2022-08-04T02:35:14.589Z,139.32
2022-08-04T02:37:47.781Z,136.02
2022-08-04T02:40:20.854Z,146.43
2022-08-04T02:42:48.099Z,151.95
2022-08-04T02:45:19.739Z,124.75
2022-08-04T02:48:08.115Z,135.90
2022-08-04T02:50:35.855Z,138.80
2022-08-04T02:53:04.556Z,156.85
2022-08-04T02:55:38.348Z,142.40
2022-08-04T02:58:06.426Z,152.43
2022-08-04T03:00:33.279Z,144.48
2022-08-04T03:03:24.601Z,141.43
2022-08-04T03:06:11.339Z,149.18
2022-08-04T03:09:06.493Z,140.82
2022-08-04T03:11:48.907Z,145.93
2022-08-04T03:14:51.970Z,160.50
2022-08-04T03:18:05.794Z,151.95
2022-08-04T03:21:00.179Z,177.43
2022-08-04T03:26:19.403Z,201.77
2022-08-04T03:29:36.112Z,203.68
2022-08-04T03:32:23.983Z,181.73
2022-08-04T03:35:22.523Z,182.75
2022-08-04T03:38:14.671Z,195.60
2022-08-04T03:41:06.446Z,140.18
2022-08-04T03:43:57.482Z,175.73
2022-08-04T03:47:00.769Z,151.45
2022-08-04T03:49:49.099Z,150.85
2022-08-04T03:53:11.584Z,168.85
2022-08-04T03:56:00.215Z,164.07
2022-08-04T03:59:04.372Z,159.77
2022-08-04T04:02:02.719Z,168.75
2022-08-04T04:05:15.166Z,151.98
2022-08-04T04:08:16.450Z,170.75
2022-08-04T04:11:07.451Z,166.10
2022-08-04T04:14:03.408Z,156.63
2022-08-04T04:16:43.704Z,156.95
2022-08-04T04:19:35.326Z,141.23
2022-08-04T04:22:22.255Z,143.93
2022-08-04T04:25:19.148Z,147.65
2022-08-04T04:28:44.216Z,127.00
2022-08-04T04:31:19.216Z,125.68
2022-08-04T04:34:02.338Z,118.13
2022-08-04T04:36:44.331Z,121.13
2022-08-04T04:39:43.607Z,116.53
2022-08-04T04:42:32.174Z,103.20
2022-08-04T04:45:04.438Z,79.65
2022-08-04T04:48:09.201Z,88.90
2022-08-04T04:50:55.718Z,79.82
2022-08-04T04:53:47.556Z,83.30
2022-08-04T04:56:40.877Z,66.68
2022-08-04T04:59:12.948Z,57.93
2022-08-04T05:01:53.528Z,41.08
2022-08-04T05:04:31.974Z,47.55
2022-08-04T05:07:28.771Z,37.95
2022-08-04T05:10:07.953Z,39.13
2022-08-04T05:14:35.580Z,41.20
2022-08-04T05:15:48.762Z,32.97
2022-08-04T05:18:22.539Z,29.40
2022-08-04T05:20:57.296Z,31.77
2022-08-04T05:23:28.829Z,28.27
2022-08-04T05:26:09.208Z,36.20
2022-08-04T05:28:48.488Z,29.55
2022-08-04T05:31:26.929Z,36.20
2022-08-04T05:33:57.666Z,27.48
2022-08-04T05:36:49.539Z,26.73
2022-08-04T05:39:21.747Z,24.40
2022-08-04T05:41:55.585Z,21.52
2022-08-04T05:44:27.398Z,20.27
2022-08-04T05:46:58.640Z,25.23
2022-08-04T05:49:28.232Z,22.25
2022-08-04T05:51:59.538Z,17.90
2022-08-04T05:54:27.849Z,20.42
2022-08-04T05:56:57.028Z,16.70
2022-08-04T05:59:28.077Z,12.02
2022-08-04T06:01:59.193Z,10.80
2022-08-04T06:04:39.501Z,6.65
2022-08-04T06:07:07.803Z,7.07
2022-08-04T06:09:34.887Z,4.82
2022-08-04T06:12:06.708Z,4.72
2022-08-04T06:14:38.582Z,3.20
2022-08-04T06:17:27.133Z,5.55
2022-08-04T06:20:17.911Z,4.10
2022-08-04T06:22:47.126Z,1.83
2022-08-04T06:25:20.548Z,3.38
2022-08-04T06:27:50.323Z,4.40
2022-08-04T06:30:19.403Z,2.15
2022-08-04T06:32:48.825Z,2.70
2022-08-04T06:35:19.877Z,3.30
2022-08-04T06:37:47.729Z,2.58
2022-08-04T06:40:30.714Z,2.10
2022-08-04T06:43:03.539Z,2.28
2022-08-04T06:45:31.973Z,2.90
2022-08-04T06:48:00.838Z,2.20
2022-08-04T06:51:26.464Z,1.70
2022-08-04T06:53:16.024Z,1.38
2022-08-04T06:55:46.048Z,1.48
2022-08-04T06:58:13.537Z,1.80
2022-08-04T07:00:43.307Z,1.92
2022-08-04T07:03:11.483Z,1.70
2022-08-04T07:05:40.146Z,1.67
2022-08-04T07:08:08.068Z,1.25
2022-08-04T07:10:35.889Z,1.52
2022-08-04T07:13:03.531Z,1.55
2022-08-04T07:15:31.411Z,1.90
2022-08-04T07:18:00.251Z,1.33
2022-08-04T07:20:33.812Z,1.85
2022-08-04T07:23:04.518Z,1.70
2022-08-04T07:25:58.567Z,2.30
2022-08-04T07:28:19.559Z,2.55
2022-08-04T07:30:48.345Z,2.03
2022-08-04T07:33:18.859Z,2.17
2022-08-04T07:36:05.150Z,1.88
2022-08-04T07:38:37.497Z,1.70
2022-08-04T07:41:35.421Z,1.65
2022-08-04T07:43:54.906Z,1.55
2022-08-04T07:46:21.952Z,2.10
2022-08-04T07:48:49.107Z,3.17
2022-08-04T07:51:16.932Z,1.40
2022-08-04T07:53:54.465Z,1.70
2022-08-04T07:56:23.351Z,2.38
2022-08-04T07:58:50.606Z,2.20
2022-08-04T08:01:19.115Z,1.80
2022-08-04T08:03:46.422Z,2.03
2022-08-04T08:06:17.756Z,1.75
2022-08-04T08:09:12.425Z,2.10
2022-08-04T08:12:37.544Z,1.67
2022-08-04T08:14:36.428Z,1.60
2022-08-04T08:17:04.560Z,1.92
2022-08-04T08:19:32.487Z,1.58
2022-08-04T08:22:01.258Z,1.70
2022-08-04T08:24:30.299Z,1.40
2022-08-04T08:26:57.547Z,2.00
2022-08-04T08:29:25.778Z,1.92
2022-08-04T08:31:58.388Z,2.65
2022-08-04T08:34:29.247Z,1.88
2022-08-04T08:37:03.791Z,1.55
2022-08-04T08:39:42.497Z,1.50
2022-08-04T08:42:28.555Z,1.92
2022-08-04T08:45:17.798Z,2.25
2022-08-04T08:48:36.853Z,1.63
2022-08-04T08:51:39.999Z,1.25
2022-08-04T08:54:40.314Z,1.60
2022-08-04T08:57:19.194Z,1.67
2022-08-04T08:59:49.313Z,1.60
2022-08-04T09:03:04.260Z,1.95
2022-08-04T09:05:42.973Z,1.45
2022-08-04T09:08:49.691Z,1.80
2022-08-04T09:11:20.964Z,1.25
2022-08-04T09:13:55.124Z,1.35
2022-08-04T09:16:42.641Z,1.90
2022-08-04T09:19:38.668Z,1.90
2022-08-04T09:22:18.552Z,1.73
2022-08-04T09:24:59.355Z,1.45
2022-08-04T09:27:33.458Z,1.30
2022-08-04T09:30:11.591Z,2.63
2022-08-04T09:33:10.688Z,1.55
2022-08-04T09:35:48.964Z,2.05
2022-08-04T09:38:20.726Z,2.47
2022-08-04T09:41:20.517Z,1.40
2022-08-04T09:43:59.218Z,1.70
2022-08-04T09:46:45.915Z,1.75
2022-08-04T09:49:21.442Z,1.90
2022-08-04T09:51:57.560Z,1.63
2022-08-04T09:54:58.474Z,1.58
2022-08-04T09:57:31.399Z,2.08
2022-08-04T10:00:07.232Z,1.52
2022-08-04T10:02:44.186Z,2.15
2022-08-04T10:05:22.338Z,1.85
2022-08-04T10:08:16.841Z,2.22
2022-08-04T10:11:14.956Z,1.92
2022-08-04T10:13:52.132Z,1.52
2022-08-04T10:16:58.680Z,1.60
2022-08-04T10:19:37.538Z,1.48
2022-08-04T10:22:30.751Z,1.80
2022-08-04T10:25:04.071Z,2.15
2022-08-04T10:27:38.270Z,1.70
2022-08-04T10:30:12.096Z,1.27
2022-08-04T10:33:07.059Z,1.95
2022-08-04T10:35:40.564Z,1.48
2022-08-04T10:38:27.122Z,1.45
2022-08-04T10:41:17.974Z,1.30
2022-08-04T10:43:55.697Z,1.20
2022-08-04T10:46:36.072Z,1.40
2022-08-04T10:49:04.822Z,1.70
2022-08-04T10:51:58.672Z,1.20
2022-08-04T10:54:57.157Z,1.30
2022-08-04T10:57:33.088Z,1.98
2022-08-04T11:00:04.734Z,1.70
2022-08-04T11:02:43.180Z,1.83
2022-08-04T11:05:18.046Z,1.40
2022-08-04T11:07:50.375Z,1.48
2022-08-04T11:10:21.839Z,1.33
2022-08-04T11:15:36.650Z,1.50
2022-08-04T11:18:16.296Z,1.20
2022-08-04T11:20:52.267Z,1.20
2022-08-04T11:23:24.225Z,1.30
2022-08-04T11:26:12.908Z,1.30
2022-08-04T11:29:04.642Z,1.27
2022-08-04T11:31:44.208Z,1.27
2022-08-04T11:34:29.175Z,1.10
2022-08-04T11:37:14.121Z,0.93
2022-08-04T11:40:04.026Z,1.50
2022-08-04T11:42:36.381Z,1.65
2022-08-04T11:45:16.032Z,1.17
2022-08-04T11:47:48.703Z,2.08
2022-08-04T11:50:22.322Z,0.90
2022-08-04T11:52:53.781Z,1.60
2022-08-04T11:55:22.932Z,1.90
2022-08-04T11:57:54.409Z,1.35
2022-08-04T12:00:25.319Z,1.65
2022-08-04T12:03:59.751Z,2.27
2022-08-04T12:06:38.920Z,1.42
2022-08-04T12:09:20.333Z,1.38
2022-08-04T12:11:47.015Z,1.98
2022-08-04T12:14:43.216Z,1.65
2022-08-04T12:17:11.808Z,2.33
2022-08-04T12:20:05.273Z,2.10
2022-08-04T12:22:44.320Z,1.42
2022-08-04T12:25:18.079Z,1.80
2022-08-04T12:27:51.004Z,1.75
2022-08-04T12:30:59.071Z,1.90
2022-08-04T12:33:41.379Z,2.53
2022-08-04T12:36:43.322Z,1.67
2022-08-04T12:39:18.718Z,1.60
2022-08-04T12:41:48.411Z,2.30
2022-08-04T12:44:33.325Z,2.03
2022-08-04T12:47:36.198Z,1.80
2022-08-04T12:50:00.313Z,2.22
2022-08-04T12:55:18.047Z,1.40
2022-08-04T12:57:46.832Z,1.73
2022-08-04T13:00:31.208Z,1.90
2022-08-04T13:03:09.724Z,1.75
2022-08-04T13:05:39.736Z,1.73
2022-08-04T13:08:08.464Z,1.60
2022-08-04T13:10:40.191Z,1.50
2022-08-04T13:13:17.224Z,2.17
2022-08-04T13:15:56.510Z,1.60
2022-08-04T13:18:29.272Z,2.15
2022-08-04T13:21:19.510Z,1.77
2022-08-04T13:24:10.002Z,2.10
2022-08-04T13:26:55.311Z,2.22
2022-08-04T13:29:57.827Z,1.95
2022-08-04T13:32:17.365Z,2.75
2022-08-04T13:34:49.583Z,2.85
2022-08-04T13:37:25.014Z,2.38
2022-08-04T13:42:25.922Z,3.92
2022-08-04T13:45:00.167Z,2.28
2022-08-04T13:47:37.902Z,2.10
2022-08-04T13:50:22.561Z,2.47
2022-08-04T13:52:53.716Z,2.13
2022-08-04T13:55:34.342Z,3.45
2022-08-04T13:58:09.850Z,2.83
2022-08-04T14:00:53.992Z,2.55
2022-08-04T14:03:29.053Z,2.55
2022-08-04T14:06:16.450Z,3.22
2022-08-04T14:08:54.501Z,3.28
2022-08-04T14:12:10.017Z,2.35
2022-08-04T14:14:30.366Z,1.90
2022-08-04T14:17:00.169Z,3.13
2022-08-04T14:19:55.295Z,3.08
2022-08-04T14:22:28.091Z,3.63
2022-08-04T14:24:59.250Z,3.45
2022-08-04T14:27:29.335Z,3.63
2022-08-04T14:29:56.311Z,4.13
2022-08-04T14:32:26.289Z,2.92
2022-08-04T14:34:53.374Z,3.05
2022-08-04T14:37:22.484Z,4.40
2022-08-04T14:40:18.507Z,3.83
2022-08-04T14:42:55.800Z,3.13
2022-08-04T14:45:30.554Z,4.22
2022-08-04T14:47:57.780Z,3.63
2022-08-04T14:50:54.595Z,4.97
2022-08-04T14:53:26.241Z,5.00
2022-08-04T14:55:56.520Z,3.50
2022-08-04T14:58:36.399Z,3.50
2022-08-04T15:01:12.005Z,2.97
2022-08-04T15:03:52.585Z,2.60
2022-08-04T15:06:28.096Z,3.92
2022-08-04T15:08:57.576Z,3.05
2022-08-04T15:11:25.326Z,3.55
2022-08-04T15:13:53.157Z,3.08
2022-08-04T15:16:21.732Z,2.67
2022-08-04T15:18:49.520Z,3.05
2022-08-04T15:21:17.402Z,2.42
2022-08-04T15:23:44.402Z,3.92
2022-08-04T15:26:15.464Z,2.22
2022-08-04T15:28:48.664Z,3.00
2022-08-04T15:32:06.829Z,3.78
2022-08-04T15:34:05.897Z,4.70
2022-08-04T15:36:43.894Z,4.18
2022-08-04T15:39:37.014Z,2.55
2022-08-04T15:42:23.364Z,4.05
2022-08-04T15:45:03.399Z,3.28
2022-08-04T15:47:30.291Z,3.10
2022-08-04T15:50:14.262Z,2.85
2022-08-04T15:52:57.197Z,3.88
2022-08-04T15:55:38.756Z,3.33
2022-08-04T15:58:07.622Z,6.05
2022-08-04T16:00:56.722Z,2.72
2022-08-04T16:03:55.320Z,3.55
2022-08-04T16:06:22.822Z,3.67
2022-08-04T16:08:51.958Z,5.03
2022-08-04T16:11:31.628Z,3.30
2022-08-04T16:13:58.956Z,2.90
2022-08-04T16:16:32.935Z,2.80
2022-08-04T16:19:13.466Z,4.18
2022-08-04T16:21:54.210Z,5.03
2022-08-04T16:24:34.140Z,3.53
2022-08-04T16:27:02.962Z,4.30
2022-08-04T16:29:33.755Z,4.82
2022-08-04T16:32:10.935Z,4.43
2022-08-04T16:34:50.283Z,3.95
2022-08-04T16:39:51.163Z,5.47
2022-08-04T16:42:33.891Z,3.88
2022-08-04T16:45:07.395Z,6.78
2022-08-04T16:47:49.498Z,4.78
2022-08-04T16:50:18.256Z,6.75
2022-08-04T16:52:47.331Z,3.95
2022-08-04T16:55:32.715Z,6.13
2022-08-04T16:57:59.589Z,5.30
2022-08-04T17:00:37.444Z,5.88
2022-08-04T17:03:05.598Z,6.65
2022-08-04T17:05:38.608Z,6.30
2022-08-04T17:08:29.246Z,6.82
2022-08-04T17:10:55.291Z,7.68
2022-08-04T17:14:02.600Z,6.45
2022-08-04T17:16:20.866Z,7.93
2022-08-04T17:18:49.653Z,5.88
2022-08-04T17:21:22.555Z,9.48
2022-08-04T17:24:15.528Z,7.25
2022-08-04T17:26:51.592Z,9.67
2022-08-04T17:29:20.343Z,10.20
2022-08-04T17:31:47.945Z,7.55
2022-08-04T17:34:19.269Z,7.10
2022-08-04T17:36:48.046Z,7.47
2022-08-04T17:39:21.702Z,7.97
2022-08-04T17:41:55.010Z,13.27
2022-08-04T17:44:34.236Z,7.82
2022-08-04T17:47:18.295Z,9.88
2022-08-04T17:49:53.354Z,5.38
2022-08-04T17:52:39.671Z,5.65
2022-08-04T17:55:16.247Z,9.93
2022-08-04T17:57:52.123Z,10.07
2022-08-04T18:00:20.117Z,8.18
2022-08-04T18:02:54.638Z,9.07
2022-08-04T18:05:50.301Z,9.90
2022-08-04T18:11:04.191Z,11.52
2022-08-04T18:13:42.587Z,11.90
2022-08-04T18:16:22.669Z,10.82
2022-08-04T18:19:14.416Z,13.70
2022-08-04T18:21:46.025Z,11.68
2022-08-04T18:24:34.788Z,13.82
2022-08-04T18:27:06.450Z,10.43
2022-08-04T18:29:39.355Z,12.88
2022-08-04T18:32:09.031Z,14.02
2022-08-04T18:34:40.747Z,14.65
2022-08-04T18:38:03.594Z,15.18
2022-08-04T18:40:30.002Z,13.57
2022-08-04T18:42:57.376Z,19.30
2022-08-04T18:45:34.071Z,12.45
2022-08-04T18:51:09.585Z,17.80
2022-08-04T18:53:37.085Z,25.13
2022-08-04T18:56:06.115Z,29.30
2022-08-04T18:58:43.232Z,21.50
2022-08-04T19:01:14.024Z,21.38
2022-08-04T19:03:44.722Z,24.33
2022-08-04T19:06:15.892Z,20.02
2022-08-04T19:08:45.268Z,24.67
2022-08-04T19:11:36.908Z,25.23
2022-08-04T19:14:02.013Z,25.58
2022-08-04T19:16:30.011Z,32.25
2022-08-04T19:19:01.805Z,32.33
2022-08-04T19:22:01.298Z,30.25
2022-08-04T19:24:31.997Z,31.55
2022-08-04T19:27:06.914Z,31.33
2022-08-04T19:29:37.563Z,29.38
2022-08-04T19:32:14.162Z,34.53
2022-08-04T19:34:46.452Z,34.88
2022-08-04T19:37:57.658Z,43.40
2022-08-04T19:40:10.326Z,40.65
2022-08-04T19:42:37.917Z,46.25
2022-08-04T19:45:05.412Z,53.72
2022-08-04T19:48:16.012Z,59.00
2022-08-04T19:50:19.805Z,51.13
2022-08-04T19:52:52.021Z,55.40
2022-08-04T19:55:36.844Z,47.33
2022-08-04T19:58:07.393Z,45.60
2022-08-04T20:00:37.199Z,49.72
2022-08-04T20:03:11.311Z,44.55
2022-08-04T20:05:55.358Z,43.58
2022-08-04T20:08:31.728Z,47.10
2022-08-04T20:11:00.099Z,52.33
2022-08-04T20:13:37.013Z,45.55
2022-08-04T20:16:05.810Z,43.85
2022-08-04T20:18:54.933Z,39.85
2022-08-04T20:21:36.672Z,37.45
2022-08-04T20:26:59.853Z,46.63
2022-08-04T20:29:40.444Z,48.47
2022-08-04T20:32:09.840Z,50.00
2022-08-04T20:34:37.550Z,49.42
2022-08-04T20:37:06.991Z,39.88
2022-08-04T20:39:37.651Z,49.35
2022-08-04T20:42:04.620Z,62.38
2022-08-04T20:44:31.371Z,71.03
2022-08-04T20:46:58.162Z,63.45
2022-08-04T20:49:35.112Z,54.70
2022-08-04T20:52:13.344Z,67.07
2022-08-04T20:54:42.579Z,65.82
2022-08-04T20:57:16.670Z,73.43
2022-08-04T20:59:44.119Z,65.95
2022-08-04T21:02:26.666Z,85.80
2022-08-04T21:04:53.714Z,77.82
2022-08-04T21:07:21.679Z,67.70
2022-08-04T21:09:50.517Z,74.22
2022-08-04T21:12:28.393Z,80.10
2022-08-04T21:15:13.166Z,77.93
2022-08-04T21:17:58.589Z,74.72
2022-08-04T21:20:28.829Z,70.30
2022-08-04T21:22:59.656Z,76.10
2022-08-04T21:25:28.677Z,67.63
2022-08-04T21:27:58.712Z,81.55
2022-08-04T21:30:26.765Z,66.32
2022-08-04T21:32:55.069Z,84.78
2022-08-04T21:35:30.839Z,81.25
2022-08-04T21:38:17.328Z,80.67
2022-08-04T21:40:55.993Z,80.07
2022-08-04T21:43:27.474Z,90.53
2022-08-04T21:45:56.961Z,91.35
2022-08-04T21:48:31.919Z,87.60
2022-08-04T21:51:12.913Z,78.53
2022-08-04T21:53:59.767Z,92.55
2022-08-04T21:56:26.817Z,84.82
2022-08-04T21:58:57.972Z,91.15
2022-08-04T22:01:51.937Z,94.07
2022-08-04T22:04:12.914Z,93.60
2022-08-04T22:06:39.691Z,102.10
2022-08-04T22:09:14.530Z,99.20
2022-08-04T22:14:34.773Z,103.78
2022-08-04T22:17:02.660Z,104.72
2022-08-04T22:19:50.086Z,102.38
2022-08-04T22:28:00.958Z,98.38
2022-08-04T22:30:36.562Z,104.63
2022-08-04T22:33:07.386Z,107.57
2022-08-04T22:35:48.714Z,109.07
2022-08-04T22:38:21.255Z,114.88
2022-08-04T22:41:08.469Z,114.05
2022-08-04T22:43:37.605Z,104.20
2022-08-04T22:46:22.307Z,107.85
2022-08-04T22:48:49.218Z,92.20
2022-08-04T22:51:16.685Z,104.25
2022-08-04T22:53:49.162Z,103.40
2022-08-04T22:56:21.510Z,112.73
2022-08-04T22:59:03.782Z,128.02
2022-08-04T23:01:57.863Z,111.68
2022-08-04T23:04:17.645Z,119.53
2022-08-04T23:06:44.529Z,124.13
2022-08-04T23:09:16.110Z,114.78
2022-08-04T23:11:43.748Z,126.70
2022-08-04T23:14:10.671Z,126.95
2022-08-04T23:16:40.369Z,132.57
2022-08-04T23:19:12.095Z,129.45
2022-08-04T23:24:14.854Z,127.13
2022-08-04T23:26:41.673Z,150.65
2022-08-04T23:29:08.544Z,125.90
2022-08-04T23:31:41.080Z,124.55
2022-08-04T23:34:22.112Z,133.75
2022-08-04T23:36:49.971Z,123.22
2022-08-04T23:39:16.825Z,137.85
2022-08-04T23:41:53.815Z,123.55
2022-08-04T23:44:24.739Z,118.07
2022-08-04T23:47:03.567Z,142.95
2022-08-04T23:49:43.457Z,142.50
2022-08-04T23:52:23.105Z,113.90
2022-08-04T23:54:58.498Z,122.75
2022-08-04T23:58:02.058Z,126.57
